createdAt,value
2019-04-26T00:01:22.702Z,96930.78
2019-04-26T00:03:53.555Z,96929.48
2019-04-26T00:06:23.551Z,96937.85
2019-04-26T00:08:57.140Z,96926.94
2019-04-26T00:11:39.848Z,96918.72
2019-04-26T00:14:26.951Z,96934.02
2019-04-26T00:16:57.936Z,96928.94
2019-04-26T00:19:29.179Z,96927.30
2019-04-26T00:22:02.960Z,96928.36
2019-04-26T00:24:35.835Z,96922.52
2019-04-26T00:27:05.654Z,96914.83
2019-04-26T00:29:36.061Z,96927.52
2019-04-26T00:32:06.739Z,96921.81
2019-04-26T00:34:37.272Z,96932.44
2019-04-26T00:37:06.770Z,96940.05
2019-04-26T00:39:36.292Z,96936.23
2019-04-26T00:42:07.006Z,96945.39
2019-04-26T00:44:37.003Z,96945.44
2019-04-26T00:47:08.047Z,96943.70
2019-04-26T00:49:43.982Z,96941.11
2019-04-26T00:52:13.005Z,96942.75
2019-04-26T00:54:44.461Z,96938.13
2019-04-26T00:57:16.268Z,96939.91
2019-04-26T00:59:45.745Z,96936.11
2019-04-26T01:02:20.656Z,96941.84
2019-04-26T01:04:50.391Z,96941.11
2019-04-26T01:07:19.895Z,96951.83
2019-04-26T01:09:48.385Z,96961.00
2019-04-26T01:12:21.919Z,96957.95
2019-04-26T01:14:54.068Z,96959.83
2019-04-26T01:17:26.721Z,96958.92
2019-04-26T01:19:58.325Z,96963.98
2019-04-26T01:22:30.908Z,96964.30
2019-04-26T01:25:06.468Z,96966.72
2019-04-26T01:27:39.998Z,96960.55
2019-04-26T01:30:14.191Z,96967.97
2019-04-26T01:32:46.392Z,96975.81
2019-04-26T01:35:17.841Z,96972.48
2019-04-26T01:37:51.041Z,96966.95
2019-04-26T01:40:22.173Z,96964.72
2019-04-26T01:42:53.268Z,96958.77
2019-04-26T01:45:27.970Z,96951.98
2019-04-26T01:48:01.396Z,96964.73
2019-04-26T01:50:35.257Z,96963.70
2019-04-26T01:53:07.765Z,96966.34
2019-04-26T01:55:38.596Z,96963.88
2019-04-26T01:58:09.517Z,96957.36
2019-04-26T02:00:56.658Z,96962.63
2019-04-26T02:03:29.817Z,96960.70
2019-04-26T02:06:00.471Z,96963.66
2019-04-26T02:08:33.069Z,96969.69
2019-04-26T02:11:02.710Z,96966.02
2019-04-26T02:13:33.466Z,96959.13
2019-04-26T02:16:03.158Z,96950.58
2019-04-26T02:18:33.587Z,96947.73
2019-04-26T02:21:10.842Z,96940.78
2019-04-26T02:23:48.782Z,96941.54
2019-04-26T02:26:21.700Z,96936.22
2019-04-26T02:28:56.250Z,96933.46
2019-04-26T02:31:27.353Z,96934.15
2019-04-26T02:33:58.541Z,96944.55
2019-04-26T02:36:52.053Z,96945.66
2019-04-26T02:39:06.514Z,96929.27
2019-04-26T02:41:38.761Z,96938.95
2019-04-26T02:44:11.189Z,96939.25
2019-04-26T02:46:53.196Z,96923.82
2019-04-26T02:49:32.292Z,96910.90
2019-04-26T02:52:09.979Z,96897.04
2019-04-26T02:55:03.843Z,96906.13
2019-04-26T02:57:38.901Z,96904.13
2019-04-26T03:00:12.791Z,96911.54
2019-04-26T03:02:45.196Z,96907.25
2019-04-26T03:05:16.223Z,96903.61
2019-04-26T03:08:02.205Z,96904.35
2019-04-26T03:10:36.637Z,96895.48
2019-04-26T03:13:10.746Z,96896.28
2019-04-26T03:15:53.048Z,96890.50
2019-04-26T03:18:37.375Z,96888.88
2019-04-26T03:21:28.152Z,96895.05
2019-04-26T03:24:05.268Z,96884.63
2019-04-26T03:26:51.372Z,96897.44
2019-04-26T03:29:31.684Z,96901.67
2019-04-26T03:32:16.654Z,96904.43
2019-04-26T03:35:00.504Z,96897.58
2019-04-26T03:37:52.688Z,96895.58
2019-04-26T03:40:47.414Z,96894.23
2019-04-26T03:43:44.590Z,96894.66
2019-04-26T03:46:31.594Z,96895.62
2019-04-26T03:49:13.129Z,96908.45
2019-04-26T03:52:09.798Z,96914.55
2019-04-26T03:54:43.165Z,96910.07
2019-04-26T04:00:40.853Z,96911.84
2019-04-26T04:03:18.628Z,96906.66
2019-04-26T04:05:53.016Z,96909.05
2019-04-26T04:08:29.673Z,96909.53
2019-04-26T04:11:05.210Z,96916.50
2019-04-26T04:13:42.988Z,96917.00
2019-04-26T04:16:26.381Z,96920.09
2019-04-26T04:19:25.808Z,96917.91
2019-04-26T04:22:09.537Z,96922.81
2019-04-26T04:24:57.281Z,96922.09
2019-04-26T04:27:30.803Z,96912.36
2019-04-26T04:30:08.466Z,96923.60
2019-04-26T04:32:42.484Z,96927.70
2019-04-26T04:35:15.556Z,96932.70
2019-04-26T04:38:09.522Z,96939.80
2019-04-26T04:41:15.907Z,96937.77
2019-04-26T04:43:50.900Z,96945.33
2019-04-26T04:46:51.906Z,96950.13
2019-04-26T04:49:31.153Z,96943.48
2019-04-26T04:52:13.846Z,96945.53
2019-04-26T04:55:06.662Z,96951.16
2019-04-26T04:57:41.902Z,96952.37
2019-04-26T05:00:22.640Z,96946.44
2019-04-26T05:03:02.657Z,96954.17
2019-04-26T05:06:07.448Z,96964.78
2019-04-26T05:08:41.398Z,96964.95
2019-04-26T05:11:31.132Z,96954.11
2019-04-26T05:14:19.898Z,96960.66
2019-04-26T05:17:05.451Z,96960.85
2019-04-26T05:19:48.549Z,96949.45
2019-04-26T05:22:41.792Z,96975.77
2019-04-26T05:25:51.368Z,96959.66
2019-04-26T05:28:34.092Z,96966.06
2019-04-26T05:31:30.324Z,96968.50
2019-04-26T05:34:26.947Z,96974.45
2019-04-26T05:37:04.847Z,96970.46
2019-04-26T05:39:58.585Z,96974.37
2019-04-26T05:43:00.790Z,96976.28
2019-04-26T05:45:56.152Z,96973.70
2019-04-26T05:48:57.907Z,96974.70
2019-04-26T05:51:50.896Z,96972.67
2019-04-26T05:54:46.297Z,96987.44
2019-04-26T05:57:36.961Z,96982.37
2019-04-26T06:00:32.950Z,96988.28
2019-04-26T06:03:27.747Z,96983.55
2019-04-26T06:06:31.261Z,96994.69
2019-04-26T06:09:10.771Z,96996.73
2019-04-26T06:11:48.723Z,97000.30
2019-04-26T06:14:50.478Z,97002.69
2019-04-26T06:17:33.586Z,96989.30
2019-04-26T06:20:21.944Z,96998.04
2019-04-26T06:22:58.160Z,96990.77
2019-04-26T06:25:42.389Z,96993.80
2019-04-26T06:28:34.097Z,96984.17
2019-04-26T06:31:26.020Z,96986.41
2019-04-26T06:34:08.486Z,96991.47
2019-04-26T06:36:51.572Z,96988.84
2019-04-26T06:39:26.673Z,96989.75
2019-04-26T06:42:13.913Z,97000.45
2019-04-26T06:45:04.745Z,97010.89
2019-04-26T06:47:55.995Z,97006.64
2019-04-26T06:50:50.739Z,97010.63
2019-04-26T06:53:40.897Z,97001.53
2019-04-26T06:57:09.619Z,96998.69
2019-04-26T06:59:53.748Z,97002.55
2019-04-26T07:02:49.031Z,97006.78
2019-04-26T07:05:25.698Z,97005.22
2019-04-26T07:08:05.042Z,97003.46
2019-04-26T07:10:59.566Z,97015.06
2019-04-26T07:13:52.364Z,97005.59
2019-04-26T07:16:34.050Z,97009.62
2019-04-26T07:19:24.717Z,97004.34
2019-04-26T07:22:12.052Z,97001.12
2019-04-26T07:25:18.186Z,97002.28
2019-04-26T07:28:19.298Z,97001.12
2019-04-26T07:30:59.669Z,97004.27
2019-04-26T07:33:41.090Z,97012.52
2019-04-26T07:36:47.203Z,97021.78
2019-04-26T07:39:35.903Z,97025.25
2019-04-26T07:42:35.831Z,97023.55
2019-04-26T07:45:44.083Z,97020.87
2019-04-26T07:48:19.834Z,97018.11
2019-04-26T07:51:14.939Z,97022.23
2019-04-26T07:54:14.208Z,97035.58
2019-04-26T07:57:04.606Z,97037.88
2019-04-26T08:00:16.472Z,97037.41
2019-04-26T08:02:57.556Z,97040.67
2019-04-26T08:05:43.471Z,97043.41
2019-04-26T08:08:15.502Z,97048.55
2019-04-26T08:11:04.587Z,97045.30
2019-04-26T08:13:41.432Z,97038.66
2019-04-26T08:16:32.449Z,97042.45
2019-04-26T08:19:08.481Z,97039.80
2019-04-26T08:21:48.101Z,97050.13
2019-04-26T08:24:28.294Z,97053.98
2019-04-26T08:27:08.876Z,97052.05
2019-04-26T08:29:37.141Z,97064.27
2019-04-26T08:32:19.436Z,97065.44
2019-04-26T08:34:53.520Z,97062.77
2019-04-26T08:37:42.909Z,97054.67
2019-04-26T08:40:24.973Z,97057.04
2019-04-26T08:42:53.383Z,97077.81
2019-04-26T08:45:44.135Z,97085.68
2019-04-26T08:48:29.315Z,97078.95
2019-04-26T08:51:10.827Z,97079.05
2019-04-26T08:53:44.876Z,97094.86
2019-04-26T08:56:20.413Z,97088.20
2019-04-26T08:58:55.557Z,97091.23
2019-04-26T09:01:31.885Z,97095.44
2019-04-26T09:04:09.649Z,97097.52
2019-04-26T09:07:00.995Z,97114.63
2019-04-26T09:09:34.437Z,97106.27
2019-04-26T09:12:08.252Z,97109.00
2019-04-26T09:14:39.896Z,97112.72
2019-04-26T09:17:12.424Z,97121.49
2019-04-26T09:19:40.982Z,97123.93
2019-04-26T09:22:13.651Z,97123.12
2019-04-26T09:24:48.533Z,97120.75
2019-04-26T09:27:22.357Z,97124.76
2019-04-26T09:30:06.562Z,97124.97
2019-04-26T09:32:38.669Z,97122.97
2019-04-26T09:35:11.327Z,97133.66
2019-04-26T09:37:40.273Z,97138.23
2019-04-26T09:40:18.643Z,97144.88
2019-04-26T09:42:43.670Z,97148.86
2019-04-26T09:45:25.112Z,97154.20
2019-04-26T09:47:57.170Z,97153.84
2019-04-26T09:50:33.921Z,97152.98
2019-04-26T09:53:04.475Z,97163.83
2019-04-26T09:55:35.423Z,97165.47
2019-04-26T09:58:09.048Z,97139.93
2019-04-26T10:00:39.090Z,97155.97
2019-04-26T10:03:09.358Z,97148.05
2019-04-26T10:05:40.018Z,97155.20
2019-04-26T10:08:14.119Z,97167.06
2019-04-26T10:10:41.183Z,97159.97
2019-04-26T10:13:24.287Z,97162.44
2019-04-26T10:16:02.636Z,97163.48
2019-04-26T10:18:30.322Z,97177.15
2019-04-26T10:20:58.852Z,97178.95
2019-04-26T10:23:29.398Z,97194.45
2019-04-26T10:25:58.919Z,97190.66
2019-04-26T10:28:29.433Z,97188.28
2019-04-26T10:30:59.862Z,97193.16
2019-04-26T10:33:32.598Z,97196.13
2019-04-26T10:36:01.652Z,97206.53
2019-04-26T10:38:32.375Z,97209.41
2019-04-26T10:41:02.986Z,97208.86
2019-04-26T10:43:33.393Z,97215.04
2019-04-26T10:46:03.865Z,97210.57
2019-04-26T10:48:33.301Z,97214.00
2019-04-26T10:51:03.333Z,97208.52
2019-04-26T10:53:41.051Z,97212.45
2019-04-26T10:56:28.859Z,97216.84
2019-04-26T10:59:01.187Z,97213.73
2019-04-26T11:01:31.192Z,97205.19
2019-04-26T11:04:00.662Z,97208.30
2019-04-26T11:06:30.064Z,97210.98
2019-04-26T11:09:00.528Z,97218.08
2019-04-26T11:11:30.026Z,97203.39
2019-04-26T11:14:01.644Z,97201.77
2019-04-26T11:16:31.046Z,97219.36
2019-04-26T11:19:02.239Z,97235.75
2019-04-26T11:21:32.463Z,97243.75
2019-04-26T11:24:03.953Z,97233.30
2019-04-26T11:26:37.635Z,97210.57
2019-04-26T11:29:08.112Z,97210.57
2019-04-26T11:31:38.558Z,97243.72
2019-04-26T11:34:08.055Z,97243.95
2019-04-26T11:36:41.301Z,97239.54
2019-04-26T11:39:11.286Z,97241.27
2019-04-26T11:41:40.916Z,97241.27
2019-04-26T11:44:13.056Z,97246.67
2019-04-26T11:46:45.012Z,97263.86
2019-04-26T11:49:13.595Z,97262.02
2019-04-26T11:51:43.000Z,97255.44
2019-04-26T11:54:17.052Z,97244.39
2019-04-26T11:56:46.212Z,97281.55
2019-04-26T11:59:16.567Z,97268.95
2019-04-26T12:01:47.603Z,97287.67
2019-04-26T12:04:28.367Z,97310.72
2019-04-26T12:07:11.487Z,97295.98
2019-04-26T12:09:43.576Z,97290.55
2019-04-26T12:12:14.332Z,97286.42
2019-04-26T12:14:46.464Z,97292.30
2019-04-26T12:17:16.909Z,97300.66
2019-04-26T12:19:48.165Z,97301.23
2019-04-26T12:22:18.723Z,97316.77
2019-04-26T12:24:48.150Z,97320.73
2019-04-26T12:27:17.677Z,97329.55
2019-04-26T12:29:49.870Z,97343.08
2019-04-26T12:32:18.366Z,97358.31
2019-04-26T12:34:48.748Z,97367.68
2019-04-26T12:37:21.063Z,97366.42
2019-04-26T12:39:50.525Z,97378.56
2019-04-26T12:42:20.916Z,97363.08
2019-04-26T12:45:12.221Z,97363.50
2019-04-26T12:47:42.997Z,97369.66
2019-04-26T12:50:13.285Z,97390.23
2019-04-26T12:52:41.777Z,97394.86
2019-04-26T12:55:13.726Z,97403.19
2019-04-26T12:57:44.457Z,97398.27
2019-04-26T13:00:17.474Z,97405.38
2019-04-26T13:02:50.173Z,97393.88
2019-04-26T13:05:18.891Z,97381.67
2019-04-26T13:07:51.824Z,97375.41
2019-04-26T13:10:39.046Z,97380.48
2019-04-26T13:13:17.038Z,97391.63
2019-04-26T13:15:54.794Z,97399.22
2019-04-26T13:18:25.515Z,97408.83
2019-04-26T13:20:58.512Z,97395.09
2019-04-26T13:23:31.346Z,97405.64
2019-04-26T13:26:01.854Z,97410.12
2019-04-26T13:28:32.207Z,97410.96
2019-04-26T13:31:02.780Z,97420.47
2019-04-26T13:33:33.274Z,97420.41
2019-04-26T13:36:06.084Z,97409.06
2019-04-26T13:38:35.454Z,97413.27
2019-04-26T13:41:07.099Z,97424.94
2019-04-26T13:43:37.976Z,97430.70
2019-04-26T13:46:19.087Z,97433.77
2019-04-26T13:48:51.381Z,97446.49
2019-04-26T13:51:26.285Z,97447.95
2019-04-26T13:53:55.747Z,97436.78
2019-04-26T13:56:26.352Z,97446.27
2019-04-26T13:58:59.593Z,97452.23
2019-04-26T14:01:30.713Z,97453.98
2019-04-26T14:04:02.313Z,97456.70
2019-04-26T14:06:34.997Z,97465.58
2019-04-26T14:09:07.266Z,97468.07
2019-04-26T14:11:38.098Z,97464.89
2019-04-26T14:14:07.792Z,97471.13
2019-04-26T14:16:38.188Z,97483.78
2019-04-26T14:19:14.634Z,97479.78
2019-04-26T14:21:40.850Z,97477.58
2019-04-26T14:24:12.925Z,97496.41
2019-04-26T14:26:47.623Z,97490.42
2019-04-26T14:29:18.236Z,97506.42
2019-04-26T14:31:51.379Z,97513.77
2019-04-26T14:34:21.755Z,97516.91
2019-04-26T14:37:05.596Z,97532.44
2019-04-26T14:39:38.494Z,97531.56
2019-04-26T14:41:59.014Z,97538.48
2019-04-26T14:44:32.692Z,97539.07
2019-04-26T14:47:13.947Z,97526.16
2019-04-26T14:49:39.652Z,97525.51
2019-04-26T14:52:08.070Z,97523.97
2019-04-26T14:54:47.592Z,97519.08
2019-04-26T14:57:26.078Z,97512.96
2019-04-26T14:59:59.354Z,97524.30
2019-04-26T15:02:35.395Z,97530.97
2019-04-26T15:05:09.333Z,97550.37
2019-04-26T15:07:48.544Z,97562.73
2019-04-26T15:10:10.921Z,97566.94
2019-04-26T15:12:47.028Z,97564.97
2019-04-26T15:15:14.544Z,97580.30
2019-04-26T15:17:44.921Z,97584.67
2019-04-26T15:20:20.922Z,97581.27
2019-04-26T15:22:50.011Z,97591.73
2019-04-26T15:25:20.237Z,97597.72
2019-04-26T15:27:52.479Z,97597.12
2019-04-26T15:30:23.889Z,97598.12
2019-04-26T15:32:54.354Z,97602.45
2019-04-26T15:35:23.759Z,97602.81
2019-04-26T15:37:57.416Z,97590.75
2019-04-26T15:40:31.967Z,97590.18
2019-04-26T15:43:14.120Z,97592.27
2019-04-26T15:45:52.546Z,97602.03
2019-04-26T15:48:33.889Z,97598.04
2019-04-26T15:51:04.272Z,97594.38
2019-04-26T15:53:33.284Z,97605.92
2019-04-26T15:56:03.829Z,97608.11
2019-04-26T15:58:34.359Z,97618.42
2019-04-26T16:01:06.791Z,97626.44
2019-04-26T16:03:36.788Z,97639.55
2019-04-26T16:06:12.588Z,97630.39
2019-04-26T16:08:43.939Z,97633.98
2019-04-26T16:11:14.515Z,97638.91
2019-04-26T16:13:51.320Z,97638.56
2019-04-26T16:16:20.669Z,97633.14
2019-04-26T16:18:55.541Z,97628.80
2019-04-26T16:21:22.046Z,97632.92
2019-04-26T16:23:55.150Z,97635.94
2019-04-26T16:26:24.071Z,97629.81
2019-04-26T16:29:05.841Z,97632.41
2019-04-26T16:31:46.057Z,97642.58
2019-04-26T16:34:28.731Z,97643.43
2019-04-26T16:37:02.957Z,97652.20
2019-04-26T16:39:36.682Z,97663.20
2019-04-26T16:42:07.266Z,97659.59
2019-04-26T16:44:35.470Z,97664.59
2019-04-26T16:47:06.138Z,97662.22
2019-04-26T16:52:07.245Z,97659.39
2019-04-26T16:54:38.408Z,97654.20
2019-04-26T16:57:11.610Z,97656.38
2019-04-26T16:59:46.812Z,97653.40
2019-04-26T17:00:46.823Z,97661.39
2019-04-26T17:02:15.883Z,97661.97
2019-04-26T17:04:44.356Z,97660.59
2019-04-26T17:07:21.931Z,97661.77
2019-04-26T17:09:57.649Z,97667.36
2019-04-26T17:12:22.560Z,97667.97
2019-04-26T17:14:54.822Z,97680.51
2019-04-26T17:17:26.359Z,97682.72
2019-04-26T17:19:56.881Z,97695.37
2019-04-26T17:22:55.776Z,97707.45
2019-04-26T17:25:23.631Z,97707.03
2019-04-26T17:27:49.614Z,97699.04
2019-04-26T17:30:20.696Z,97696.80
2019-04-26T17:32:51.553Z,97686.28
2019-04-26T17:35:21.515Z,97679.28
2019-04-26T17:37:57.496Z,97685.27
2019-04-26T17:40:36.207Z,97693.13
2019-04-26T17:43:01.036Z,97702.41
2019-04-26T17:45:31.646Z,97712.20
2019-04-26T17:48:02.047Z,97709.13
2019-04-26T17:50:35.312Z,97711.21
2019-04-26T17:53:06.640Z,97706.78
2019-04-26T17:55:36.216Z,97709.00
2019-04-26T17:58:12.395Z,97700.88
2019-04-26T18:00:45.704Z,97707.63
2019-04-26T18:03:14.659Z,97703.64
2019-04-26T18:05:56.811Z,97693.88
2019-04-26T18:08:33.052Z,97695.70
2019-04-26T18:10:45.937Z,97690.27
2019-04-26T18:13:17.765Z,97687.09
2019-04-26T18:15:48.512Z,97686.31
2019-04-26T18:18:37.215Z,97690.66
2019-04-26T18:21:24.576Z,97688.90
2019-04-26T18:23:57.267Z,97685.34
2019-04-26T18:26:28.071Z,97692.31
2019-04-26T18:28:57.458Z,97697.50
2019-04-26T18:31:28.864Z,97694.89
2019-04-26T18:34:00.803Z,97698.71
2019-04-26T18:36:31.987Z,97706.64
2019-04-26T18:39:03.883Z,97703.89
2019-04-26T18:41:33.987Z,97708.67
2019-04-26T18:44:04.760Z,97712.86
2019-04-26T18:46:40.032Z,97718.27
2019-04-26T18:49:11.393Z,97723.84
2019-04-26T18:51:43.382Z,97722.80
2019-04-26T18:54:17.928Z,97728.11
2019-04-26T18:56:50.263Z,97728.73
2019-04-26T18:59:23.375Z,97733.43
2019-04-26T19:01:55.473Z,97735.23
2019-04-26T19:04:25.989Z,97734.27
2019-04-26T19:06:55.274Z,97737.27
2019-04-26T19:09:26.321Z,97739.00
2019-04-26T19:11:57.868Z,97742.25
2019-04-26T19:14:31.762Z,97735.09
2019-04-26T19:17:09.906Z,97738.33
2019-04-26T19:19:59.851Z,97745.70
2019-04-26T19:22:32.206Z,97738.34
2019-04-26T19:25:03.352Z,97749.48
2019-04-26T19:27:33.973Z,97745.55
2019-04-26T19:30:09.009Z,97746.16
2019-04-26T19:32:39.648Z,97750.34
2019-04-26T19:35:12.293Z,97747.95
2019-04-26T19:37:39.589Z,97749.34
2019-04-26T19:40:10.678Z,97751.30
2019-04-26T19:42:42.515Z,97743.16
2019-04-26T19:45:19.314Z,97743.72
2019-04-26T19:47:52.029Z,97744.31
2019-04-26T19:50:26.154Z,97741.71
2019-04-26T19:52:58.208Z,97736.33
2019-04-26T19:55:31.760Z,97742.64
2019-04-26T19:58:09.565Z,97741.27
2019-04-26T20:00:42.518Z,97743.50
2019-04-26T20:03:15.179Z,97742.43
2019-04-26T20:05:44.041Z,97743.61
2019-04-26T20:08:12.340Z,97747.23
2019-04-26T20:10:45.997Z,97757.99
2019-04-26T20:13:16.857Z,97749.84
2019-04-26T20:15:48.813Z,97750.46
2019-04-26T20:18:19.296Z,97760.48
2019-04-26T20:20:52.853Z,97762.46
2019-04-26T20:23:23.223Z,97760.11
2019-04-26T20:25:53.632Z,97770.30
2019-04-26T20:28:24.343Z,97770.59
2019-04-26T20:31:05.887Z,97772.46
2019-04-26T20:33:31.183Z,97759.67
2019-04-26T20:36:04.991Z,97757.53
2019-04-26T20:38:43.619Z,97758.46
2019-04-26T20:41:13.274Z,97755.52
2019-04-26T20:43:46.880Z,97759.55
2019-04-26T20:46:15.818Z,97761.75
2019-04-26T20:48:46.049Z,97766.73
2019-04-26T20:51:18.064Z,97766.94
2019-04-26T20:53:46.929Z,97770.31
2019-04-26T20:56:18.787Z,97770.27
2019-04-26T20:58:49.478Z,97768.09
2019-04-26T21:01:20.094Z,97773.25
2019-04-26T21:03:52.529Z,97765.91
2019-04-26T21:06:24.247Z,97771.71
2019-04-26T21:08:59.029Z,97776.45
2019-04-26T21:11:30.371Z,97775.45
2019-04-26T21:14:03.251Z,97772.92
2019-04-26T21:16:32.436Z,97773.62
2019-04-26T21:19:01.938Z,97760.48
2019-04-26T21:21:32.634Z,97756.72
2019-04-26T21:24:05.539Z,97762.59
2019-04-26T21:26:35.959Z,97759.48
2019-04-26T21:29:08.559Z,97765.98
2019-04-26T21:31:45.370Z,97765.13
2019-04-26T21:34:15.406Z,97763.61
2019-04-26T21:37:03.583Z,97761.16
2019-04-26T21:39:39.452Z,97755.25
2019-04-26T21:42:08.314Z,97755.05
2019-04-26T21:44:38.917Z,97758.28
2019-04-26T21:47:08.343Z,97764.64
2019-04-26T21:49:39.215Z,97767.20
2019-04-26T21:52:09.670Z,97775.61
2019-04-26T21:54:43.208Z,97779.77
2019-04-26T21:57:14.039Z,97782.17
2019-04-26T21:59:44.649Z,97782.08
2019-04-26T22:02:17.560Z,97780.34
2019-04-26T22:04:47.043Z,97786.77
2019-04-26T22:07:17.429Z,97782.83
2019-04-26T22:09:49.615Z,97783.94
2019-04-26T22:12:20.225Z,97781.09
2019-04-26T22:14:58.259Z,97784.11
2019-04-26T22:17:25.344Z,97781.75
2019-04-26T22:19:57.360Z,97782.39
2019-04-26T22:22:28.382Z,97776.61
2019-04-26T22:25:03.899Z,97774.66
2019-04-26T22:27:34.369Z,97780.43
2019-04-26T22:30:04.918Z,97775.41
2019-04-26T22:32:34.280Z,97772.89
2019-04-26T22:35:03.588Z,97769.45
2019-04-26T22:37:33.737Z,97765.20
2019-04-26T22:40:04.309Z,97762.16
2019-04-26T22:42:39.918Z,97766.17
2019-04-26T22:45:13.309Z,97768.57
2019-04-26T22:47:45.228Z,97776.28
2019-04-26T22:50:20.877Z,97779.50
2019-04-26T22:52:51.586Z,97773.16
2019-04-26T22:55:24.756Z,97765.73
2019-04-26T22:57:53.046Z,97763.00
2019-04-26T23:00:29.350Z,97757.55
2019-04-26T23:02:58.093Z,97764.53
2019-04-26T23:05:30.697Z,97768.56
2019-04-26T23:08:03.515Z,97770.16
2019-04-26T23:10:34.485Z,97773.16
2019-04-26T23:13:13.224Z,97774.83
2019-04-26T23:15:47.999Z,97778.50
2019-04-26T23:18:38.814Z,97776.61
2019-04-26T23:21:14.938Z,97778.66
2019-04-26T23:23:44.292Z,97766.66
2019-04-26T23:26:14.413Z,97776.09
2019-04-26T23:28:45.401Z,97775.70
2019-04-26T23:31:16.017Z,97773.30
2019-04-26T23:33:46.423Z,97778.91
2019-04-26T23:36:19.575Z,97782.48
2019-04-26T23:38:50.053Z,97779.55
2019-04-26T23:41:20.458Z,97763.66
2019-04-26T23:43:49.299Z,97763.66
2019-04-26T23:46:22.300Z,97768.13
2019-04-26T23:48:49.845Z,97766.27
2019-04-26T23:51:21.487Z,97758.61
2019-04-26T23:53:56.339Z,97748.62
2019-04-26T23:56:25.293Z,97747.89
2019-04-26T23:58:55.191Z,97749.69
